Página principal
METAR-TAF:

METAR-TAF

Aeroportos :

Golovin, Alasca, Estados Unidos

latitude: 64-32-36N, longitude: 163-02-22W, altura: 8 m

Observação actual do tempo

O boletim foi feito há 23 horas e 53 minutos, às 19:56 UTC
Vento 3 kt de nor-noroeste
Temperatura 11°C
Humidade 71%
Pressão 1016 hPa
Visibilidade: 16.1 km
Encobertoa uma altura de 5500 ft

METAR: PAGL 191956Z AUTO 33003KT 10SM OVC055 11/06 A2999 RMK AO2 SLP149 T01110061

Hora: 11:49 (19:49 UTC)


TAF: em falta

Observações e previsões do tempo de mais de 4000 aeroportos (mensagens METAR e TAF).

As estações disponíveis são os pontos amarelos e vermelhos sobre o mapa.

Mova o rato sobre o mapa para ver o nome da estação.

Depois clique no ponto para visualizar as observações e previsões meteorológicas.

Para alterar o mapa : clique nos botões verdes com uma cruz preta para aumentar o zoom; no botão verde com uma pitada de zoom; ou nas setas verdes para mapas adjacentes.


METAR-TAF: